Nearby METAR Reports

 

KSJC - San Jose, California, USA
Distance from station: NE 9mi, 14km
Updated: Sun, 18-Apr-2021 2:53pm PDT
Clear
Clear
 Wind from NW
Wind: NW 12 mph , 19 km/h
Temperature: 82°F , 28°C
Dew Point: 37°F , 3°C
Humidity: 20%
Barometer: 30.07 inHg , 1018.3 hPa
Clouds: Clear
Visibility: 10 miles , 16 km
2021/04/18 21:53 KSJC 182153Z 32010KT 10SM CLR 28/03 A3007 RMK AO2 SLP182 T02780028 $
KNUQ - Moffett Nas/Mtn, California, USA
Distance from station: N 9mi, 14km
Updated: Tue, 13-Apr-2021 3:40pm PDT
NOT Current

 
2021/04/13 22:40 KNUQ 132240Z AUTO RMK AO2 PNO PWINO TSNO
 
KPAO - Palo Alto, California, USA
Distance from station: NNW 14mi, 23km
Updated: Sun, 18-Apr-2021 2:47pm PDT
Clear
Clear
 Wind from NNW
Wind: NNW 14 mph , 22 km/h
Temperature: 75°F , 24°C
Dew Point: 54°F , 12°C
Humidity: 47%
Barometer: 30.08 inHg , 1018.6 hPa
Clouds: Clear
Visibility: 10 miles , 16 km
2021/04/18 21:47 KPAO 182147Z 34012KT 10SM SKC 24/12 A3008
KRHV - San Jose/Reid, California, USA
Distance from station: ENE 12mi, 19km
Updated: Sun, 18-Apr-2021 2:47pm PDT
Clear
Clear
 Wind from NNW
Wind: NNW 10 mph , 17 km/h
Temperature: 82°F , 28°C
Dew Point: 39°F , 4°C
Humidity: 21%
Barometer: 30.08 inHg , 1018.6 hPa
Clouds: Clear
Visibility: 10 miles , 16 km
2021/04/18 21:47 KRHV 182147Z 33009KT 10SM SKC 28/04 A3008
 
KOAK - Oakland, California, USA
Distance from station: NNW 31mi, 50km
Updated: Sun, 18-Apr-2021 2:53pm PDT
Few Clouds
Few Clouds
 Wind from WNW
Wind: WNW 13 mph , 20 km/h
Temperature: 72°F , 22°C
Dew Point: 50°F , 10°C
Humidity: 47%
Barometer: 30.10 inHg , 1019.3 hPa
Clouds: Few Clouds
Visibility: 10 miles , 16 km
Cloud details: Few Clouds 1000 ft
2021/04/18 21:53 KOAK 182153Z 30011KT 10SM FEW010 22/10 A3010 RMK AO2 SLP193 T02170100
KSQL - San Carlos Airpo, California, USA
Distance from station: NW 21mi, 34km
Updated: Sun, 18-Apr-2021 2:47pm PDT
Clear
Clear
 Wind from NW
Wind: NW 7 mph , 11 km/h
Temperature: 81°F , 27°C
Dew Point: 32°F , 0°C
Humidity: 17%
Barometer: 30.09 inHg , 1019 hPa
Clouds: Clear
Visibility: 10 miles , 16 km
2021/04/18 21:47 KSQL 182147Z 32006KT 10SM SKC 27/00 A3009
 
KSFO - San Francisco, California, USA
Distance from station: NW 30mi, 49km
Updated: Sun, 18-Apr-2021 2:56pm PDT
Few Clouds
Few Clouds
 Wind from WNW
Wind: WNW 16 mph , 26 km/h
Temperature: 70°F , 21°C
Dew Point: 46°F , 8°C
Humidity: 43%
Barometer: 30.09 inHg , 1019 hPa
Clouds: Few Clouds
Visibility: 10 miles , 16 km
Cloud details: Few Clouds 500 ft
2021/04/18 21:56 KSFO 182156Z 30014KT 10SM FEW005 21/08 A3009 RMK AO2 SLP189 T02110083
KE16 - San Martin, California, USA
Distance from station: ESE 27mi, 43km
Updated: Sun, 18-Apr-2021 3:35pm PDT
Clear
Clear
 Wind from NNW
Wind: NNW 10 mph , 17 km/h
Temperature: 84°F , 29°C
Dew Point: 28°F , -2°C
Humidity: 13%
Barometer: 30.06 inHg , 1017.9 hPa
Clouds: Clear
Visibility: 10 miles , 16 km
2021/04/18 22:35 KE16 182235Z AUTO 33009KT 10SM CLR 29/M02 A3006 RMK AO2
 
KWVI - Watsonville, California, USA
Distance from station: SSE 27mi, 44km
Updated: Sun, 18-Apr-2021 2:53pm PDT
Clear
Clear
 Wind from SSW
Wind: SSW 9 mph , 15 km/h
Temperature: 68°F , 20°C
Dew Point: 52°F , 11°C
Humidity: 56%
Barometer: 30.11 inHg , 1019.6 hPa
Clouds: Clear
Visibility: 10 miles , 16 km
2021/04/18 21:53 KWVI 182153Z AUTO 20008KT 10SM CLR 20/11 A3011 RMK AO2 SLP195 T02000106
KHAF - Half Moon Bay, California, USA
Distance from station: WNW 31mi, 50km
Updated: Sun, 18-Apr-2021 3:35pm PDT
Mist, Clear
Mist, Clear
 Wind from NW
Wind: NW 13 mph , 20 km/h
Temperature: 54°F , 12°C
Dew Point: 48°F , 9°C
Humidity: 82%
Barometer: 30.14 inHg , 1020.7 hPa
Summary: Mist
Clouds: Clear
Visibility: 5 miles , 8 km
2021/04/18 22:35 KHAF 182235Z AUTO 31011KT 5SM BR CLR 12/09 A3014 RMK AO2
 
KHWD - Hayward, California, USA
Distance from station: N 28mi, 44km
Updated: Sun, 18-Apr-2021 2:54pm PDT
Clear
Clear
 Wind from WNW
Wind: WNW 13 mph , 20 km/h
Temperature: 79°F , 26°C
Dew Point: 45°F , 7°C
Humidity: 30%
Barometer: 30.08 inHg , 1018.6 hPa
Clouds: Clear
Visibility: 10 miles , 16 km
2021/04/18 21:54 KHWD 182154Z 29011KT 10SM CLR 26/07 A3008 RMK AO2 SLP195 T02560067
KLVK - Livermore, California, USA
Distance from station: NNE 31mi, 51km
Updated: Sun, 18-Apr-2021 2:53pm PDT
Clear
Clear
 
Temperature: 88°F , 31°C
Dew Point: 19°F , -7°C
Humidity: 8%
Barometer: 30.06 inHg , 1017.9 hPa
Clouds: Clear
Visibility: 10 miles , 16 km
2021/04/18 21:53 KLVK 182153Z 10SM CLR 31/M07 A3006 RMK AO2 SLP175 T03061067